Harpenden, United Kingdom
Current Conditions -  °F | °C
As of 1:20 PM on Friday 19 Dec 2014 (Local Time) from EGGW Reporting Station
Few Clouds Few Clouds  
Wind Chill: 38°   Ceiling: Unl
Heat Index: 46°   Visibility: 6mi
Dew Point: 37°   Wind: 23mph
Humidity: 71%   Direction: 270°W
Pressure: 29.97"   Gusts: NA
Location:  51.82°N, 0.36°W
Report Text: EGGW 191320Z 27020KT 9999 FEW030 08/03 Q1015
Loading
Personal Weather Stations






























Interactive Weather Map New forecast layout! Learn more

10-Day Weather Forecast

Advertisements
Track Severe Weather on mobile